sensor_id;sensor_type;location;lat;lon;timestamp;P1;durP1;ratioP1;P2;durP2;ratioP2
25567;SDS011;13455;51.480;7.594;2022-07-29T00:01:58;7.60;;;1.55;;
25567;SDS011;13455;51.480;7.594;2022-07-29T00:04:24;7.27;;;1.60;;
25567;SDS011;13455;51.480;7.594;2022-07-29T00:06:49;6.83;;;1.50;;
25567;SDS011;13455;51.480;7.594;2022-07-29T00:09:15;9.15;;;1.60;;
25567;SDS011;13455;51.480;7.594;2022-07-29T00:11:41;5.65;;;1.50;;
25567;SDS011;13455;51.480;7.594;2022-07-29T00:14:07;4.50;;;1.40;;
25567;SDS011;13455;51.480;7.594;2022-07-29T00:16:33;4.65;;;1.30;;
25567;SDS011;13455;51.480;7.594;2022-07-29T00:18:59;7.57;;;1.50;;
25567;SDS011;13455;51.480;7.594;2022-07-29T00:21:24;8.05;;;1.40;;
25567;SDS011;13455;51.480;7.594;2022-07-29T00:23:50;6.90;;;1.63;;
25567;SDS011;13455;51.480;7.594;2022-07-29T00:26:16;6.32;;;1.60;;
25567;SDS011;13455;51.480;7.594;2022-07-29T00:28:42;6.38;;;1.50;;
25567;SDS011;13455;51.480;7.594;2022-07-29T00:31:08;6.72;;;1.60;;
25567;SDS011;13455;51.480;7.594;2022-07-29T00:33:34;10.57;;;1.60;;
25567;SDS011;13455;51.480;7.594;2022-07-29T00:36:00;3.80;;;1.40;;
25567;SDS011;13455;51.480;7.594;2022-07-29T00:38:26;4.85;;;1.50;;
25567;SDS011;13455;51.480;7.594;2022-07-29T00:40:52;6.78;;;1.63;;
25567;SDS011;13455;51.480;7.594;2022-07-29T00:43:18;8.35;;;1.75;;
25567;SDS011;13455;51.480;7.594;2022-07-29T00:45:44;8.55;;;1.65;;
25567;SDS011;13455;51.480;7.594;2022-07-29T00:48:11;6.80;;;1.90;;
25567;SDS011;13455;51.480;7.594;2022-07-29T00:50:37;6.97;;;1.80;;
25567;SDS011;13455;51.480;7.594;2022-07-29T00:53:05;9.00;;;1.87;;
25567;SDS011;13455;51.480;7.594;2022-07-29T00:55:31;13.52;;;1.70;;
25567;SDS011;13455;51.480;7.594;2022-07-29T00:57:57;4.10;;;1.50;;
25567;SDS011;13455;51.480;7.594;2022-07-29T01:00:24;6.80;;;1.50;;
25567;SDS011;13455;51.480;7.594;2022-07-29T01:02:51;6.88;;;1.70;;
25567;SDS011;13455;51.480;7.594;2022-07-29T01:05:17;7.55;;;1.48;;
25567;SDS011;13455;51.480;7.594;2022-07-29T01:07:44;7.03;;;1.67;;
25567;SDS011;13455;51.480;7.594;2022-07-29T01:10:10;12.17;;;1.63;;
25567;SDS011;13455;51.480;7.594;2022-07-29T01:12:38;6.47;;;1.65;;
25567;SDS011;13455;51.480;7.594;2022-07-29T01:15:05;6.18;;;1.55;;
25567;SDS011;13455;51.480;7.594;2022-07-29T01:20:10;7.22;;;1.70;;
25567;SDS011;13455;51.480;7.594;2022-07-29T01:22:42;4.63;;;1.30;;
25567;SDS011;13455;51.480;7.594;2022-07-29T01:27:54;6.93;;;1.60;;
25567;SDS011;13455;51.480;7.594;2022-07-29T01:30:26;5.45;;;1.50;;
25567;SDS011;13455;51.480;7.594;2022-07-29T01:32:54;4.45;;;1.45;;
25567;SDS011;13455;51.480;7.594;2022-07-29T01:35:25;7.65;;;1.70;;
25567;SDS011;13455;51.480;7.594;2022-07-29T01:37:55;5.40;;;1.60;;
25567;SDS011;13455;51.480;7.594;2022-07-29T01:40:58;6.88;;;1.70;;
25567;SDS011;13455;51.480;7.594;2022-07-29T01:43:16;6.20;;;1.40;;
25567;SDS011;13455;51.480;7.594;2022-07-29T01:45:44;5.70;;;1.50;;
25567;SDS011;13455;51.480;7.594;2022-07-29T01:48:24;5.75;;;1.40;;
25567;SDS011;13455;51.480;7.594;2022-07-29T01:50:58;7.68;;;1.60;;
25567;SDS011;13455;51.480;7.594;2022-07-29T01:53:36;6.65;;;1.70;;
25567;SDS011;13455;51.480;7.594;2022-07-29T01:56:04;8.25;;;1.60;;
25567;SDS011;13455;51.480;7.594;2022-07-29T01:58:32;7.50;;;1.50;;
25567;SDS011;13455;51.480;7.594;2022-07-29T02:00:58;7.53;;;1.60;;
25567;SDS011;13455;51.480;7.594;2022-07-29T02:03:25;7.50;;;1.50;;
25567;SDS011;13455;51.480;7.594;2022-07-29T02:05:51;5.68;;;1.58;;
25567;SDS011;13455;51.480;7.594;2022-07-29T02:08:18;6.95;;;1.40;;
25567;SDS011;13455;51.480;7.594;2022-07-29T02:10:45;9.45;;;1.77;;
25567;SDS011;13455;51.480;7.594;2022-07-29T02:13:13;6.03;;;1.60;;
25567;SDS011;13455;51.480;7.594;2022-07-29T02:15:41;8.00;;;1.80;;
25567;SDS011;13455;51.480;7.594;2022-07-29T02:18:09;4.35;;;1.42;;
25567;SDS011;13455;51.480;7.594;2022-07-29T02:20:39;6.05;;;1.50;;
25567;SDS011;13455;51.480;7.594;2022-07-29T02:23:09;6.18;;;1.58;;
25567;SDS011;13455;51.480;7.594;2022-07-29T02:25:36;5.28;;;1.60;;
25567;SDS011;13455;51.480;7.594;2022-07-29T02:28:03;5.68;;;1.50;;
25567;SDS011;13455;51.480;7.594;2022-07-29T02:30:29;6.18;;;1.60;;
25567;SDS011;13455;51.480;7.594;2022-07-29T02:32:56;4.53;;;1.63;;
25567;SDS011;13455;51.480;7.594;2022-07-29T02:35:22;7.30;;;1.87;;
25567;SDS011;13455;51.480;7.594;2022-07-29T02:37:48;7.57;;;1.60;;
25567;SDS011;13455;51.480;7.594;2022-07-29T02:40:34;6.55;;;1.60;;
25567;SDS011;13455;51.480;7.594;2022-07-29T02:43:03;7.55;;;1.70;;
25567;SDS011;13455;51.480;7.594;2022-07-29T02:45:31;8.70;;;1.70;;
25567;SDS011;13455;51.480;7.594;2022-07-29T02:47:57;5.63;;;1.60;;
25567;SDS011;13455;51.480;7.594;2022-07-29T02:50:32;6.07;;;1.50;;
25567;SDS011;13455;51.480;7.594;2022-07-29T02:53:22;7.00;;;1.65;;
25567;SDS011;13455;51.480;7.594;2022-07-29T02:55:48;6.35;;;1.70;;
25567;SDS011;13455;51.480;7.594;2022-07-29T03:00:58;9.48;;;1.52;;
25567;SDS011;13455;51.480;7.594;2022-07-29T03:03:28;4.72;;;1.60;;
25567;SDS011;13455;51.480;7.594;2022-07-29T03:05:59;7.47;;;1.65;;
25567;SDS011;13455;51.480;7.594;2022-07-29T03:08:27;5.50;;;1.40;;
25567;SDS011;13455;51.480;7.594;2022-07-29T03:10:54;7.70;;;1.77;;
25567;SDS011;13455;51.480;7.594;2022-07-29T03:13:20;5.70;;;1.50;;
25567;SDS011;13455;51.480;7.594;2022-07-29T03:15:47;6.30;;;1.55;;
25567;SDS011;13455;51.480;7.594;2022-07-29T03:18:13;7.38;;;1.73;;
25567;SDS011;13455;51.480;7.594;2022-07-29T03:20:40;5.28;;;1.60;;
25567;SDS011;13455;51.480;7.594;2022-07-29T03:23:06;7.10;;;1.73;;
25567;SDS011;13455;51.480;7.594;2022-07-29T03:25:33;5.10;;;1.60;;
25567;SDS011;13455;51.480;7.594;2022-07-29T03:27:59;5.87;;;1.60;;
25567;SDS011;13455;51.480;7.594;2022-07-29T03:30:24;8.33;;;1.70;;
25567;SDS011;13455;51.480;7.594;2022-07-29T03:32:50;6.78;;;1.80;;
25567;SDS011;13455;51.480;7.594;2022-07-29T03:35:17;5.13;;;1.60;;
25567;SDS011;13455;51.480;7.594;2022-07-29T03:37:43;5.82;;;1.70;;
25567;SDS011;13455;51.480;7.594;2022-07-29T03:40:10;9.50;;;1.70;;
25567;SDS011;13455;51.480;7.594;2022-07-29T03:42:39;5.75;;;1.70;;
25567;SDS011;13455;51.480;7.594;2022-07-29T03:45:06;6.00;;;1.75;;
25567;SDS011;13455;51.480;7.594;2022-07-29T03:47:34;7.07;;;2.28;;
25567;SDS011;13455;51.480;7.594;2022-07-29T03:50:02;7.25;;;1.75;;
25567;SDS011;13455;51.480;7.594;2022-07-29T03:52:31;6.73;;;1.70;;
25567;SDS011;13455;51.480;7.594;2022-07-29T03:54:57;8.00;;;1.70;;
25567;SDS011;13455;51.480;7.594;2022-07-29T03:57:23;11.10;;;1.70;;
25567;SDS011;13455;51.480;7.594;2022-07-29T03:59:53;7.03;;;1.85;;
25567;SDS011;13455;51.480;7.594;2022-07-29T04:02:19;5.82;;;1.80;;
25567;SDS011;13455;51.480;7.594;2022-07-29T04:04:45;6.63;;;1.73;;
25567;SDS011;13455;51.480;7.594;2022-07-29T04:07:12;5.97;;;1.50;;
25567;SDS011;13455;51.480;7.594;2022-07-29T04:09:38;5.35;;;1.80;;
25567;SDS011;13455;51.480;7.594;2022-07-29T04:12:04;7.73;;;1.73;;
25567;SDS011;13455;51.480;7.594;2022-07-29T04:14:31;5.05;;;1.73;;
25567;SDS011;13455;51.480;7.594;2022-07-29T04:16:57;6.93;;;1.75;;
25567;SDS011;13455;51.480;7.594;2022-07-29T04:19:23;6.80;;;1.80;;
25567;SDS011;13455;51.480;7.594;2022-07-29T04:21:49;6.00;;;1.80;;
25567;SDS011;13455;51.480;7.594;2022-07-29T04:24:15;5.40;;;1.70;;
25567;SDS011;13455;51.480;7.594;2022-07-29T04:26:40;4.97;;;1.50;;
25567;SDS011;13455;51.480;7.594;2022-07-29T04:29:07;5.25;;;1.50;;
25567;SDS011;13455;51.480;7.594;2022-07-29T04:31:32;5.80;;;1.90;;
25567;SDS011;13455;51.480;7.594;2022-07-29T04:33:58;6.30;;;1.77;;
25567;SDS011;13455;51.480;7.594;2022-07-29T04:36:23;7.63;;;1.87;;
25567;SDS011;13455;51.480;7.594;2022-07-29T04:38:52;5.68;;;1.70;;
25567;SDS011;13455;51.480;7.594;2022-07-29T04:41:18;6.30;;;1.80;;
25567;SDS011;13455;51.480;7.594;2022-07-29T04:43:44;7.13;;;2.00;;
25567;SDS011;13455;51.480;7.594;2022-07-29T04:46:10;5.10;;;1.90;;
25567;SDS011;13455;51.480;7.594;2022-07-29T04:48:36;5.72;;;1.80;;
25567;SDS011;13455;51.480;7.594;2022-07-29T04:51:02;5.75;;;2.08;;
25567;SDS011;13455;51.480;7.594;2022-07-29T04:53:28;8.30;;;2.20;;
25567;SDS011;13455;51.480;7.594;2022-07-29T04:55:53;7.68;;;2.05;;
25567;SDS011;13455;51.480;7.594;2022-07-29T04:58:19;9.38;;;2.00;;
25567;SDS011;13455;51.480;7.594;2022-07-29T05:00:48;8.47;;;2.00;;
25567;SDS011;13455;51.480;7.594;2022-07-29T05:03:14;5.93;;;2.03;;
25567;SDS011;13455;51.480;7.594;2022-07-29T05:05:41;7.00;;;1.92;;
25567;SDS011;13455;51.480;7.594;2022-07-29T05:08:07;7.78;;;2.00;;
25567;SDS011;13455;51.480;7.594;2022-07-29T05:10:33;6.03;;;1.90;;
25567;SDS011;13455;51.480;7.594;2022-07-29T05:13:03;7.20;;;1.90;;
25567;SDS011;13455;51.480;7.594;2022-07-29T05:15:30;9.00;;;2.10;;
25567;SDS011;13455;51.480;7.594;2022-07-29T05:17:56;6.50;;;2.07;;
25567;SDS011;13455;51.480;7.594;2022-07-29T05:20:21;9.10;;;2.00;;
25567;SDS011;13455;51.480;7.594;2022-07-29T05:22:51;11.02;;;2.28;;
25567;SDS011;13455;51.480;7.594;2022-07-29T05:25:17;8.77;;;2.38;;
25567;SDS011;13455;51.480;7.594;2022-07-29T05:27:43;11.40;;;2.00;;
25567;SDS011;13455;51.480;7.594;2022-07-29T05:30:08;8.43;;;2.00;;
25567;SDS011;13455;51.480;7.594;2022-07-29T05:32:34;9.13;;;2.25;;
25567;SDS011;13455;51.480;7.594;2022-07-29T05:35:00;10.48;;;2.10;;
25567;SDS011;13455;51.480;7.594;2022-07-29T05:37:26;6.80;;;1.87;;
25567;SDS011;13455;51.480;7.594;2022-07-29T05:39:51;6.87;;;2.00;;
25567;SDS011;13455;51.480;7.594;2022-07-29T05:42:17;6.07;;;1.70;;
25567;SDS011;13455;51.480;7.594;2022-07-29T05:44:43;9.38;;;2.03;;
25567;SDS011;13455;51.480;7.594;2022-07-29T05:47:08;6.10;;;1.60;;
25567;SDS011;13455;51.480;7.594;2022-07-29T05:49:34;9.27;;;1.90;;
25567;SDS011;13455;51.480;7.594;2022-07-29T05:52:00;7.20;;;1.90;;
25567;SDS011;13455;51.480;7.594;2022-07-29T05:54:25;4.55;;;1.77;;
25567;SDS011;13455;51.480;7.594;2022-07-29T05:56:51;6.50;;;1.80;;
25567;SDS011;13455;51.480;7.594;2022-07-29T05:59:17;6.03;;;1.77;;
25567;SDS011;13455;51.480;7.594;2022-07-29T06:01:42;8.90;;;1.97;;
25567;SDS011;13455;51.480;7.594;2022-07-29T06:04:08;8.23;;;1.98;;
25567;SDS011;13455;51.480;7.594;2022-07-29T06:06:34;5.10;;;1.75;;
25567;SDS011;13455;51.480;7.594;2022-07-29T06:09:00;5.90;;;1.70;;
25567;SDS011;13455;51.480;7.594;2022-07-29T06:11:26;6.63;;;1.90;;
25567;SDS011;13455;51.480;7.594;2022-07-29T06:13:52;7.50;;;1.80;;
25567;SDS011;13455;51.480;7.594;2022-07-29T06:16:18;7.20;;;1.88;;
25567;SDS011;13455;51.480;7.594;2022-07-29T06:18:44;6.77;;;1.73;;
25567;SDS011;13455;51.480;7.594;2022-07-29T06:21:09;7.33;;;1.93;;
25567;SDS011;13455;51.480;7.594;2022-07-29T06:23:36;8.60;;;1.92;;
25567;SDS011;13455;51.480;7.594;2022-07-29T06:26:03;5.60;;;1.80;;
25567;SDS011;13455;51.480;7.594;2022-07-29T06:28:28;7.00;;;1.67;;
25567;SDS011;13455;51.480;7.594;2022-07-29T06:30:54;8.70;;;2.00;;
25567;SDS011;13455;51.480;7.594;2022-07-29T06:33:20;6.35;;;2.00;;
25567;SDS011;13455;51.480;7.594;2022-07-29T06:35:45;7.00;;;1.90;;
25567;SDS011;13455;51.480;7.594;2022-07-29T06:38:14;5.82;;;1.70;;
25567;SDS011;13455;51.480;7.594;2022-07-29T06:40:41;8.18;;;1.90;;
25567;SDS011;13455;51.480;7.594;2022-07-29T06:43:29;6.32;;;2.00;;
25567;SDS011;13455;51.480;7.594;2022-07-29T06:46:03;7.07;;;2.00;;
25567;SDS011;13455;51.480;7.594;2022-07-29T06:48:30;8.83;;;1.87;;
25567;SDS011;13455;51.480;7.594;2022-07-29T06:50:56;7.90;;;1.73;;
25567;SDS011;13455;51.480;7.594;2022-07-29T06:53:22;8.83;;;2.03;;
25567;SDS011;13455;51.480;7.594;2022-07-29T06:55:47;7.85;;;2.13;;
25567;SDS011;13455;51.480;7.594;2022-07-29T06:58:13;6.07;;;2.03;;
25567;SDS011;13455;51.480;7.594;2022-07-29T07:00:41;6.07;;;1.80;;
25567;SDS011;13455;51.480;7.594;2022-07-29T07:03:07;5.43;;;1.90;;
25567;SDS011;13455;51.480;7.594;2022-07-29T07:05:33;6.93;;;2.03;;
25567;SDS011;13455;51.480;7.594;2022-07-29T07:07:59;9.35;;;2.13;;
25567;SDS011;13455;51.480;7.594;2022-07-29T07:10:24;6.60;;;2.07;;
25567;SDS011;13455;51.480;7.594;2022-07-29T07:12:50;7.32;;;2.00;;
25567;SDS011;13455;51.480;7.594;2022-07-29T07:15:17;8.48;;;2.38;;
25567;SDS011;13455;51.480;7.594;2022-07-29T07:17:46;7.67;;;2.10;;
25567;SDS011;13455;51.480;7.594;2022-07-29T07:20:13;6.27;;;1.93;;
25567;SDS011;13455;51.480;7.594;2022-07-29T07:22:39;6.23;;;2.30;;
25567;SDS011;13455;51.480;7.594;2022-07-29T07:25:05;9.63;;;2.37;;
25567;SDS011;13455;51.480;7.594;2022-07-29T07:27:31;5.93;;;2.13;;
25567;SDS011;13455;51.480;7.594;2022-07-29T07:29:57;5.87;;;2.10;;
25567;SDS011;13455;51.480;7.594;2022-07-29T07:32:22;10.18;;;2.40;;
25567;SDS011;13455;51.480;7.594;2022-07-29T07:34:48;9.57;;;2.05;;
25567;SDS011;13455;51.480;7.594;2022-07-29T07:37:14;5.22;;;2.13;;
25567;SDS011;13455;51.480;7.594;2022-07-29T07:39:41;9.02;;;2.20;;
25567;SDS011;13455;51.480;7.594;2022-07-29T07:42:06;6.68;;;2.22;;
25567;SDS011;13455;51.480;7.594;2022-07-29T07:44:32;5.57;;;2.00;;
25567;SDS011;13455;51.480;7.594;2022-07-29T07:46:58;7.50;;;2.23;;
25567;SDS011;13455;51.480;7.594;2022-07-29T07:49:24;7.70;;;2.07;;
25567;SDS011;13455;51.480;7.594;2022-07-29T07:51:52;7.82;;;2.00;;
25567;SDS011;13455;51.480;7.594;2022-07-29T07:54:18;8.18;;;2.30;;
25567;SDS011;13455;51.480;7.594;2022-07-29T07:56:45;5.70;;;2.00;;
25567;SDS011;13455;51.480;7.594;2022-07-29T07:59:11;8.95;;;2.17;;
25567;SDS011;13455;51.480;7.594;2022-07-29T08:01:36;6.93;;;2.10;;
25567;SDS011;13455;51.480;7.594;2022-07-29T08:04:02;5.87;;;2.20;;
25567;SDS011;13455;51.480;7.594;2022-07-29T08:06:28;5.65;;;2.28;;
25567;SDS011;13455;51.480;7.594;2022-07-29T08:08:54;12.38;;;2.50;;
25567;SDS011;13455;51.480;7.594;2022-07-29T08:11:20;7.80;;;2.10;;
25567;SDS011;13455;51.480;7.594;2022-07-29T08:13:46;9.10;;;2.30;;
25567;SDS011;13455;51.480;7.594;2022-07-29T08:16:12;5.25;;;2.08;;
25567;SDS011;13455;51.480;7.594;2022-07-29T08:18:40;5.33;;;2.20;;
25567;SDS011;13455;51.480;7.594;2022-07-29T08:21:06;6.18;;;2.13;;
25567;SDS011;13455;51.480;7.594;2022-07-29T08:23:32;8.47;;;2.30;;
25567;SDS011;13455;51.480;7.594;2022-07-29T08:26:08;6.57;;;2.20;;
25567;SDS011;13455;51.480;7.594;2022-07-29T08:28:38;6.32;;;2.50;;
25567;SDS011;13455;51.480;7.594;2022-07-29T08:31:05;7.18;;;1.98;;
25567;SDS011;13455;51.480;7.594;2022-07-29T08:33:32;6.13;;;2.20;;
25567;SDS011;13455;51.480;7.594;2022-07-29T08:35:58;6.45;;;2.25;;
25567;SDS011;13455;51.480;7.594;2022-07-29T08:38:24;6.75;;;2.13;;
25567;SDS011;13455;51.480;7.594;2022-07-29T08:40:51;5.23;;;2.30;;
25567;SDS011;13455;51.480;7.594;2022-07-29T08:43:17;7.38;;;2.17;;
25567;SDS011;13455;51.480;7.594;2022-07-29T08:45:45;6.53;;;2.15;;
25567;SDS011;13455;51.480;7.594;2022-07-29T08:48:15;6.70;;;2.15;;
25567;SDS011;13455;51.480;7.594;2022-07-29T08:50:45;7.30;;;2.20;;
25567;SDS011;13455;51.480;7.594;2022-07-29T08:53:13;8.75;;;2.40;;
25567;SDS011;13455;51.480;7.594;2022-07-29T08:55:40;7.35;;;2.10;;
25567;SDS011;13455;51.480;7.594;2022-07-29T08:58:07;7.65;;;2.30;;
25567;SDS011;13455;51.480;7.594;2022-07-29T09:00:33;8.27;;;2.03;;
25567;SDS011;13455;51.480;7.594;2022-07-29T09:03:01;9.18;;;2.30;;
25567;SDS011;13455;51.480;7.594;2022-07-29T09:05:29;8.35;;;2.15;;
25567;SDS011;13455;51.480;7.594;2022-07-29T09:07:55;6.82;;;1.85;;
25567;SDS011;13455;51.480;7.594;2022-07-29T09:10:21;6.93;;;2.05;;
25567;SDS011;13455;51.480;7.594;2022-07-29T09:12:47;6.53;;;2.00;;
25567;SDS011;13455;51.480;7.594;2022-07-29T09:15:14;4.53;;;1.75;;
25567;SDS011;13455;51.480;7.594;2022-07-29T09:20:10;5.95;;;1.98;;
25567;SDS011;13455;51.480;7.594;2022-07-29T09:22:41;9.43;;;1.83;;
25567;SDS011;13455;51.480;7.594;2022-07-29T09:25:07;10.82;;;2.25;;
25567;SDS011;13455;51.480;7.594;2022-07-29T09:27:33;7.22;;;1.90;;
25567;SDS011;13455;51.480;7.594;2022-07-29T09:30:03;5.80;;;1.88;;
25567;SDS011;13455;51.480;7.594;2022-07-29T09:32:31;7.00;;;1.90;;
25567;SDS011;13455;51.480;7.594;2022-07-29T09:37:42;6.75;;;1.90;;
25567;SDS011;13455;51.480;7.594;2022-07-29T09:40:13;4.57;;;1.50;;
25567;SDS011;13455;51.480;7.594;2022-07-29T09:42:40;6.03;;;1.80;;
25567;SDS011;13455;51.480;7.594;2022-07-29T09:45:07;5.80;;;1.60;;
25567;SDS011;13455;51.480;7.594;2022-07-29T09:47:40;5.43;;;1.80;;
25567;SDS011;13455;51.480;7.594;2022-07-29T09:50:07;7.28;;;1.80;;
25567;SDS011;13455;51.480;7.594;2022-07-29T09:52:41;8.20;;;2.00;;
25567;SDS011;13455;51.480;7.594;2022-07-29T09:55:14;7.13;;;1.80;;
25567;SDS011;13455;51.480;7.594;2022-07-29T09:57:40;7.72;;;1.92;;
25567;SDS011;13455;51.480;7.594;2022-07-29T10:00:08;7.88;;;1.77;;
25567;SDS011;13455;51.480;7.594;2022-07-29T10:02:36;6.88;;;2.10;;
25567;SDS011;13455;51.480;7.594;2022-07-29T10:05:03;7.82;;;1.95;;
25567;SDS011;13455;51.480;7.594;2022-07-29T10:07:47;7.35;;;2.00;;
25567;SDS011;13455;51.480;7.594;2022-07-29T10:10:24;5.70;;;1.70;;
25567;SDS011;13455;51.480;7.594;2022-07-29T10:12:55;7.57;;;1.70;;
25567;SDS011;13455;51.480;7.594;2022-07-29T10:15:22;9.67;;;2.00;;
25567;SDS011;13455;51.480;7.594;2022-07-29T10:17:48;7.90;;;1.77;;
25567;SDS011;13455;51.480;7.594;2022-07-29T10:20:15;8.32;;;1.70;;
25567;SDS011;13455;51.480;7.594;2022-07-29T10:22:41;5.90;;;1.80;;
25567;SDS011;13455;51.480;7.594;2022-07-29T10:25:09;9.30;;;2.23;;
25567;SDS011;13455;51.480;7.594;2022-07-29T10:27:35;9.07;;;2.40;;
25567;SDS011;13455;51.480;7.594;2022-07-29T10:30:02;9.45;;;2.25;;
25567;SDS011;13455;51.480;7.594;2022-07-29T10:39:56;6.57;;;2.55;;
25567;SDS011;13455;51.480;7.594;2022-07-29T10:42:27;8.07;;;2.80;;
25567;SDS011;13455;51.480;7.594;2022-07-29T10:44:55;10.15;;;3.58;;
25567;SDS011;13455;51.480;7.594;2022-07-29T10:47:22;9.77;;;3.77;;
25567;SDS011;13455;51.480;7.594;2022-07-29T10:50:01;8.73;;;3.80;;
25567;SDS011;13455;51.480;7.594;2022-07-29T11:00:45;8.63;;;3.70;;
25567;SDS011;13455;51.480;7.594;2022-07-29T11:05:56;7.85;;;3.20;;
25567;SDS011;13455;51.480;7.594;2022-07-29T11:08:23;9.90;;;3.30;;
25567;SDS011;13455;51.480;7.594;2022-07-29T11:10:51;8.65;;;3.10;;
25567;SDS011;13455;51.480;7.594;2022-07-29T11:16:03;6.85;;;2.83;;
25567;SDS011;13455;51.480;7.594;2022-07-29T11:18:30;10.20;;;3.17;;
25567;SDS011;13455;51.480;7.594;2022-07-29T11:20:56;7.25;;;2.80;;
25567;SDS011;13455;51.480;7.594;2022-07-29T11:31:14;11.80;;;3.00;;
25567;SDS011;13455;51.480;7.594;2022-07-29T11:33:40;8.98;;;3.08;;
25567;SDS011;13455;51.480;7.594;2022-07-29T11:36:07;7.70;;;2.90;;
25567;SDS011;13455;51.480;7.594;2022-07-29T11:38:35;10.38;;;3.00;;
25567;SDS011;13455;51.480;7.594;2022-07-29T11:41:34;8.00;;;3.20;;
25567;SDS011;13455;51.480;7.594;2022-07-29T11:49:05;10.53;;;2.90;;
25567;SDS011;13455;51.480;7.594;2022-07-29T11:51:31;8.98;;;2.60;;
25567;SDS011;13455;51.480;7.594;2022-07-29T11:53:58;10.02;;;2.78;;
25567;SDS011;13455;51.480;7.594;2022-07-29T11:56:24;9.13;;;2.72;;
25567;SDS011;13455;51.480;7.594;2022-07-29T11:59:00;6.95;;;2.63;;
25567;SDS011;13455;51.480;7.594;2022-07-29T12:01:28;8.88;;;2.95;;
25567;SDS011;13455;51.480;7.594;2022-07-29T12:04:06;8.90;;;2.75;;
25567;SDS011;13455;51.480;7.594;2022-07-29T12:06:33;7.97;;;3.05;;
25567;SDS011;13455;51.480;7.594;2022-07-29T12:08:59;11.10;;;2.80;;
25567;SDS011;13455;51.480;7.594;2022-07-29T12:11:26;6.43;;;3.20;;
25567;SDS011;13455;51.480;7.594;2022-07-29T12:13:52;10.23;;;3.10;;
25567;SDS011;13455;51.480;7.594;2022-07-29T12:16:19;7.32;;;3.00;;
25567;SDS011;13455;51.480;7.594;2022-07-29T12:18:58;9.85;;;3.25;;
25567;SDS011;13455;51.480;7.594;2022-07-29T12:21:24;7.18;;;3.22;;
25567;SDS011;13455;51.480;7.594;2022-07-29T12:23:54;10.05;;;3.15;;
25567;SDS011;13455;51.480;7.594;2022-07-29T12:26:20;8.27;;;3.13;;
25567;SDS011;13455;51.480;7.594;2022-07-29T12:28:46;7.72;;;3.30;;
25567;SDS011;13455;51.480;7.594;2022-07-29T12:31:12;7.95;;;3.00;;
25567;SDS011;13455;51.480;7.594;2022-07-29T12:33:38;9.23;;;3.20;;
25567;SDS011;13455;51.480;7.594;2022-07-29T12:36:05;9.80;;;3.37;;
25567;SDS011;13455;51.480;7.594;2022-07-29T12:38:31;9.20;;;3.10;;
25567;SDS011;13455;51.480;7.594;2022-07-29T12:40:57;5.83;;;3.00;;
25567;SDS011;13455;51.480;7.594;2022-07-29T12:43:24;10.30;;;3.40;;
25567;SDS011;13455;51.480;7.594;2022-07-29T12:45:51;9.23;;;3.08;;
25567;SDS011;13455;51.480;7.594;2022-07-29T12:48:22;9.02;;;3.33;;
25567;SDS011;13455;51.480;7.594;2022-07-29T12:50:59;9.98;;;3.38;;
25567;SDS011;13455;51.480;7.594;2022-07-29T12:53:26;7.38;;;3.30;;
25567;SDS011;13455;51.480;7.594;2022-07-29T12:55:53;7.63;;;3.30;;
25567;SDS011;13455;51.480;7.594;2022-07-29T13:00:59;10.27;;;3.17;;
25567;SDS011;13455;51.480;7.594;2022-07-29T13:03:26;7.97;;;3.17;;
25567;SDS011;13455;51.480;7.594;2022-07-29T13:05:52;8.65;;;3.38;;
25567;SDS011;13455;51.480;7.594;2022-07-29T13:08:18;7.55;;;3.20;;
25567;SDS011;13455;51.480;7.594;2022-07-29T13:10:45;9.90;;;3.35;;
25567;SDS011;13455;51.480;7.594;2022-07-29T13:13:12;8.05;;;3.17;;
25567;SDS011;13455;51.480;7.594;2022-07-29T13:15:39;10.70;;;3.22;;
25567;SDS011;13455;51.480;7.594;2022-07-29T13:18:25;6.70;;;3.22;;
25567;SDS011;13455;51.480;7.594;2022-07-29T13:20:51;7.90;;;2.97;;
25567;SDS011;13455;51.480;7.594;2022-07-29T13:23:17;10.50;;;3.40;;
25567;SDS011;13455;51.480;7.594;2022-07-29T13:25:44;8.75;;;3.20;;
25567;SDS011;13455;51.480;7.594;2022-07-29T13:28:10;10.25;;;3.58;;
25567;SDS011;13455;51.480;7.594;2022-07-29T13:30:36;8.30;;;3.20;;
25567;SDS011;13455;51.480;7.594;2022-07-29T13:33:02;9.20;;;3.30;;
25567;SDS011;13455;51.480;7.594;2022-07-29T13:35:28;9.73;;;3.30;;
25567;SDS011;13455;51.480;7.594;2022-07-29T13:37:54;14.65;;;3.65;;
25567;SDS011;13455;51.480;7.594;2022-07-29T13:40:20;10.07;;;3.70;;
25567;SDS011;13455;51.480;7.594;2022-07-29T13:42:46;8.50;;;3.50;;
25567;SDS011;13455;51.480;7.594;2022-07-29T13:45:13;10.55;;;4.15;;
25567;SDS011;13455;51.480;7.594;2022-07-29T13:47:39;8.63;;;3.65;;
25567;SDS011;13455;51.480;7.594;2022-07-29T13:50:06;10.82;;;4.00;;
25567;SDS011;13455;51.480;7.594;2022-07-29T13:52:33;10.93;;;3.97;;
25567;SDS011;13455;51.480;7.594;2022-07-29T13:54:59;10.10;;;4.00;;
25567;SDS011;13455;51.480;7.594;2022-07-29T13:57:25;8.63;;;3.90;;
25567;SDS011;13455;51.480;7.594;2022-07-29T13:59:51;8.27;;;4.00;;
25567;SDS011;13455;51.480;7.594;2022-07-29T14:02:17;9.80;;;4.13;;
25567;SDS011;13455;51.480;7.594;2022-07-29T14:04:43;11.82;;;3.92;;
25567;SDS011;13455;51.480;7.594;2022-07-29T14:07:12;9.67;;;4.43;;
25567;SDS011;13455;51.480;7.594;2022-07-29T14:09:38;8.50;;;3.90;;
25567;SDS011;13455;51.480;7.594;2022-07-29T14:12:04;11.20;;;3.73;;
25567;SDS011;13455;51.480;7.594;2022-07-29T14:14:30;6.57;;;3.43;;
25567;SDS011;13455;51.480;7.594;2022-07-29T14:16:57;9.00;;;3.53;;
25567;SDS011;13455;51.480;7.594;2022-07-29T14:19:23;7.82;;;3.50;;
25567;SDS011;13455;51.480;7.594;2022-07-29T14:21:49;7.05;;;3.65;;
25567;SDS011;13455;51.480;7.594;2022-07-29T14:24:15;8.32;;;3.97;;
25567;SDS011;13455;51.480;7.594;2022-07-29T14:26:41;6.25;;;3.60;;
25567;SDS011;13455;51.480;7.594;2022-07-29T14:29:07;9.20;;;3.70;;
25567;SDS011;13455;51.480;7.594;2022-07-29T14:31:32;7.47;;;4.03;;
25567;SDS011;13455;51.480;7.594;2022-07-29T14:33:58;7.45;;;3.75;;
25567;SDS011;13455;51.480;7.594;2022-07-29T14:36:24;10.35;;;4.40;;
25567;SDS011;13455;51.480;7.594;2022-07-29T14:38:55;7.47;;;3.60;;
25567;SDS011;13455;51.480;7.594;2022-07-29T14:41:20;7.72;;;3.67;;
25567;SDS011;13455;51.480;7.594;2022-07-29T14:43:46;9.15;;;3.90;;
25567;SDS011;13455;51.480;7.594;2022-07-29T14:46:13;7.90;;;3.60;;
25567;SDS011;13455;51.480;7.594;2022-07-29T14:48:40;9.50;;;3.95;;
25567;SDS011;13455;51.480;7.594;2022-07-29T14:51:06;8.27;;;3.80;;
25567;SDS011;13455;51.480;7.594;2022-07-29T14:53:32;8.35;;;3.55;;
25567;SDS011;13455;51.480;7.594;2022-07-29T14:55:58;9.77;;;3.63;;
25567;SDS011;13455;51.480;7.594;2022-07-29T14:58:24;7.70;;;3.28;;
25567;SDS011;13455;51.480;7.594;2022-07-29T15:00:50;8.25;;;3.50;;
25567;SDS011;13455;51.480;7.594;2022-07-29T15:03:17;8.00;;;3.33;;
25567;SDS011;13455;51.480;7.594;2022-07-29T15:05:43;7.85;;;3.53;;
25567;SDS011;13455;51.480;7.594;2022-07-29T15:08:09;6.70;;;3.00;;
25567;SDS011;13455;51.480;7.594;2022-07-29T15:10:34;6.35;;;3.00;;
25567;SDS011;13455;51.480;7.594;2022-07-29T15:13:01;8.63;;;3.10;;
25567;SDS011;13455;51.480;7.594;2022-07-29T15:15:27;8.63;;;3.50;;
25567;SDS011;13455;51.480;7.594;2022-07-29T15:17:52;6.00;;;2.80;;
25567;SDS011;13455;51.480;7.594;2022-07-29T15:20:18;5.93;;;2.77;;
25567;SDS011;13455;51.480;7.594;2022-07-29T15:22:44;6.55;;;2.40;;
25567;SDS011;13455;51.480;7.594;2022-07-29T15:25:10;9.30;;;2.53;;
25567;SDS011;13455;51.480;7.594;2022-07-29T15:27:36;5.13;;;2.20;;
25567;SDS011;13455;51.480;7.594;2022-07-29T15:30:02;6.60;;;2.22;;
25567;SDS011;13455;51.480;7.594;2022-07-29T15:32:29;6.88;;;1.98;;
25567;SDS011;13455;51.480;7.594;2022-07-29T15:34:55;7.70;;;2.00;;
25567;SDS011;13455;51.480;7.594;2022-07-29T15:37:21;6.28;;;2.17;;